createdAt,value
2019-05-29T00:02:49.642Z,75.91
2019-05-29T00:12:50.352Z,74.17
2019-05-29T00:22:51.059Z,74.58
2019-05-29T00:32:51.876Z,75.47
2019-05-29T00:42:52.539Z,71.16
2019-05-29T00:52:53.263Z,72.34
2019-05-29T01:02:53.994Z,72.53
2019-05-29T01:12:54.861Z,72.94
2019-05-29T01:22:55.568Z,72.85
2019-05-29T01:32:56.233Z,72.33
2019-05-29T01:42:56.959Z,72.83
2019-05-29T01:52:57.640Z,72.18
2019-05-29T02:02:58.545Z,75.28
2019-05-29T02:12:59.197Z,77.24
2019-05-29T02:22:59.900Z,78.09
2019-05-29T02:33:00.573Z,74.11
2019-05-29T02:43:01.350Z,70.68
2019-05-29T02:53:02.117Z,69.61
2019-05-29T03:03:02.927Z,70.94
2019-05-29T03:13:04.814Z,70.30
2019-05-29T03:23:05.696Z,69.39
2019-05-29T03:33:06.485Z,71.28
2019-05-29T03:43:07.158Z,79.01
2019-05-29T03:53:07.947Z,76.89
2019-05-29T04:03:08.702Z,76.40
2019-05-29T04:13:09.377Z,73.72
2019-05-29T04:23:10.134Z,70.58
2019-05-29T04:33:11.143Z,73.19
2019-05-29T04:43:11.782Z,72.70
2019-05-29T04:53:15.475Z,71.17
2019-05-29T05:03:17.146Z,70.45
2019-05-29T05:13:18.426Z,71.53
2019-05-29T05:23:19.133Z,72.12
2019-05-29T05:33:19.916Z,72.16
2019-05-29T05:43:24.088Z,70.86
2019-05-29T05:53:23.252Z,71.73
2019-05-29T06:03:25.988Z,66.09
2019-05-29T06:13:30.663Z,65.45
2019-05-29T06:23:32.695Z,65.69
2019-05-29T06:33:33.539Z,58.56
2019-05-29T06:43:34.222Z,57.34
2019-05-29T06:53:35.706Z,53.90
2019-05-29T07:03:37.655Z,63.13
2019-05-29T07:13:41.783Z,59.47
2019-05-29T07:23:41.301Z,66.32
2019-05-29T07:33:43.175Z,57.25
2019-05-29T07:43:44.077Z,57.31
2019-05-29T07:53:44.774Z,51.27
2019-05-29T08:03:45.529Z,49.92
2019-05-29T08:13:46.187Z,57.51
2019-05-29T08:23:48.575Z,51.77
2019-05-29T08:33:49.304Z,52.95
2019-05-29T08:43:50.776Z,48.13
2019-05-29T08:53:52.486Z,54.36
2019-05-29T09:03:54.303Z,53.01
2019-05-29T09:13:54.997Z,49.87
2019-05-29T09:23:58.828Z,48.16
2019-05-29T09:33:59.822Z,47.27
2019-05-29T09:44:00.511Z,48.92
2019-05-29T09:54:03.460Z,51.08
2019-05-29T10:04:06.203Z,45.79
2019-05-29T10:14:06.950Z,50.70
2019-05-29T10:24:11.619Z,48.23
2019-05-29T10:34:17.494Z,49.34
2019-05-29T10:44:18.191Z,43.63
2019-05-29T10:54:28.151Z,46.77
2019-05-29T11:04:30.925Z,48.04
2019-05-29T11:14:34.275Z,48.28
2019-05-29T11:24:34.906Z,43.56
2019-05-29T11:34:35.626Z,42.09
2019-05-29T11:44:36.604Z,45.82
2019-05-29T11:54:55.595Z,38.40
2019-05-29T12:05:06.251Z,40.03
2019-05-29T12:15:14.265Z,40.93
2019-05-29T12:25:11.604Z,45.70
2019-05-29T12:35:18.183Z,46.62
2019-05-29T12:45:20.999Z,41.89
2019-05-29T12:55:22.748Z,39.23
2019-05-29T13:05:24.828Z,42.20
2019-05-29T13:15:25.714Z,40.55
2019-05-29T13:25:26.387Z,36.37
2019-05-29T13:35:29.141Z,34.95
2019-05-29T13:45:30.762Z,36.79
2019-05-29T13:55:33.250Z,33.54
2019-05-29T14:05:35.906Z,31.32
2019-05-29T14:15:36.650Z,31.82
2019-05-29T14:25:37.345Z,31.70
2019-05-29T14:35:39.098Z,33.82
2019-05-29T14:45:39.764Z,33.31
2019-05-29T14:55:40.486Z,29.34
2019-05-29T15:05:41.134Z,29.32
2019-05-29T15:15:42.829Z,31.67
2019-05-29T15:25:43.505Z,31.35
2019-05-29T15:35:45.236Z,33.57
2019-05-29T15:45:45.910Z,34.60
2019-05-29T15:55:46.807Z,33.14
2019-05-29T16:05:47.564Z,35.17
2019-05-29T16:15:51.297Z,33.54
2019-05-29T16:25:53.146Z,36.61
2019-05-29T16:35:53.815Z,35.30
2019-05-29T16:45:54.602Z,36.95
2019-05-29T16:55:55.282Z,32.72
2019-05-29T17:05:56.041Z,32.03
2019-05-29T17:15:56.712Z,33.56
2019-05-29T17:26:10.209Z,34.75
2019-05-29T17:36:00.024Z,33.22
2019-05-29T17:46:00.873Z,33.50
2019-05-29T17:56:01.611Z,33.83
2019-05-29T18:06:02.549Z,33.78
2019-05-29T18:16:03.227Z,39.07
2019-05-29T18:26:03.901Z,44.11
2019-05-29T18:36:04.580Z,43.18
2019-05-29T18:46:05.263Z,52.00
2019-05-29T18:56:05.932Z,55.57
2019-05-29T19:06:07.644Z,54.43
2019-05-29T19:16:08.435Z,56.03
2019-05-29T19:26:09.259Z,57.79
2019-05-29T19:36:09.998Z,58.71
2019-05-29T19:46:10.787Z,59.97
2019-05-29T19:56:11.593Z,57.72
2019-05-29T20:06:12.349Z,56.29
2019-05-29T20:16:13.017Z,55.93
2019-05-29T20:26:13.706Z,57.95
2019-05-29T20:36:15.394Z,56.60
2019-05-29T20:46:19.105Z,59.51
2019-05-29T20:56:19.773Z,60.17
2019-05-29T21:06:22.429Z,60.65
2019-05-29T21:16:23.294Z,60.74
2019-05-29T21:26:24.092Z,61.98
2019-05-29T21:36:24.904Z,62.08
2019-05-29T21:46:26.594Z,62.06
2019-05-29T21:56:27.276Z,63.38
2019-05-29T22:06:28.156Z,64.12
2019-05-29T22:16:29.052Z,64.33
2019-05-29T22:26:29.749Z,65.20
2019-05-29T22:36:30.614Z,65.62
2019-05-29T22:46:31.358Z,65.92
2019-05-29T22:56:33.081Z,65.21
2019-05-29T23:06:33.859Z,64.51
2019-05-29T23:16:34.619Z,64.68
2019-05-29T23:26:35.341Z,64.17
2019-05-29T23:36:36.116Z,63.85
2019-05-29T23:46:36.841Z,64.27
2019-05-29T23:56:37.516Z,64.94
